Woodstock, Connecticut
Current Conditions -  °F | °C
As of 2:52 AM on Thursday 18 Dec 2014 (Local Time) from KIJD Reporting Station
Overcast Overcast  
Wind Chill: 36°   Ceiling: 7000
Heat Index: 39°   Visibility: 10mi
Dew Point: 29°   Wind: 5mph
Humidity: 67%   Direction: NA
Pressure: 29.78"   Gusts: NA
Location:  41.95°N, 71.97°W
Report Text: KIJD 180752Z AUTO VRB04KT 10SM SCT034 OVC070 04/M02 A2978 RMK AO2 SLP084 T00391017
Loading
Personal Weather Stations






























Interactive Weather Map New forecast layout! Learn more

10-Day Weather Forecast

Advertisements
Track Severe Weather on mobile